createdAt,value
2022-08-05T00:00:19.173Z,100024.94
2022-08-05T00:02:50.565Z,100035.22
2022-08-05T00:05:27.485Z,100038.69
2022-08-05T00:08:32.729Z,100048.84
2022-08-05T00:11:00.569Z,100062.84
2022-08-05T00:13:39.538Z,100111.50
2022-08-05T00:16:12.690Z,100135.72
2022-08-05T00:18:42.346Z,100153.88
2022-08-05T00:21:10.694Z,100149.13
2022-08-05T00:23:45.700Z,100152.09
2022-08-05T00:26:16.499Z,100147.38
2022-08-05T00:28:46.027Z,100141.50
2022-08-05T00:31:14.422Z,100140.25
2022-08-05T00:34:56.278Z,100141.38
2022-08-05T00:37:20.097Z,100162.81
2022-08-05T00:39:18.013Z,100169.69
2022-08-05T00:41:55.178Z,100179.88
2022-08-05T00:44:30.663Z,100183.94
2022-08-05T00:47:02.043Z,100192.28
2022-08-05T00:49:51.301Z,100186.38
2022-08-05T00:52:28.337Z,100178.22
2022-08-05T00:54:57.057Z,100173.16
2022-08-05T00:57:38.067Z,100161.66
2022-08-05T01:00:16.912Z,100175.91
2022-08-05T01:02:45.038Z,100165.25
2022-08-05T01:05:12.875Z,100167.41
2022-08-05T01:08:41.990Z,100148.56
2022-08-05T01:10:36.756Z,100148.25
2022-08-05T01:13:12.928Z,100143.81
2022-08-05T01:15:54.183Z,100124.34
2022-08-05T01:18:27.519Z,100074.13
2022-08-05T01:21:08.936Z,100052.69
2022-08-05T01:23:57.864Z,100069.69
2022-08-05T01:26:56.675Z,100076.50
2022-08-05T01:29:33.178Z,100084.44
2022-08-05T01:32:12.387Z,100097.84
2022-08-05T01:34:49.681Z,100072.13
2022-08-05T01:37:25.136Z,100065.41
2022-08-05T01:39:58.819Z,100066.59
2022-08-05T01:42:28.792Z,100056.66
2022-08-05T01:45:02.075Z,100046.50
2022-08-05T01:47:39.783Z,100065.94
2022-08-05T01:50:17.395Z,100045.97
2022-08-05T01:52:49.917Z,100044.81
2022-08-05T01:55:21.602Z,100050.22
2022-08-05T01:58:29.496Z,100034.53
2022-08-05T02:00:45.357Z,100042.34
2022-08-05T02:03:28.954Z,100020.72
2022-08-05T02:06:01.022Z,100048.81
2022-08-05T02:08:32.199Z,100046.00
2022-08-05T02:11:03.910Z,100031.31
2022-08-05T02:13:53.242Z,100033.66
2022-08-05T02:16:27.550Z,100012.50
2022-08-05T02:18:59.650Z,99992.13
2022-08-05T02:21:32.376Z,99988.41
2022-08-05T02:24:18.068Z,99986.75
2022-08-05T02:26:53.835Z,99976.44
2022-08-05T02:29:58.143Z,99977.38
2022-08-05T02:32:23.637Z,99995.81
2022-08-05T02:34:54.696Z,100020.22
2022-08-05T02:37:24.910Z,100012.81
2022-08-05T02:39:53.874Z,100057.94
2022-08-05T02:42:26.113Z,100108.00
2022-08-05T02:44:57.999Z,100126.75
2022-08-05T02:48:07.405Z,100122.88
2022-08-05T02:50:18.071Z,100124.53
2022-08-05T02:52:47.673Z,100123.72
2022-08-05T02:55:17.574Z,100159.00
2022-08-05T02:58:11.605Z,100164.06
2022-08-05T03:00:45.998Z,100144.03
2022-08-05T03:03:17.713Z,100148.81
2022-08-05T03:06:54.658Z,100139.13
2022-08-05T03:08:37.030Z,100150.53
2022-08-05T03:11:55.351Z,100169.25
2022-08-05T03:14:03.239Z,100169.84
2022-08-05T03:16:32.266Z,100161.59
2022-08-05T03:19:04.277Z,100145.09
2022-08-05T03:21:48.958Z,100154.66
2022-08-05T03:24:23.604Z,100159.22
2022-08-05T03:26:58.501Z,100171.91
2022-08-05T03:29:45.781Z,100168.69
2022-08-05T03:32:15.230Z,100160.16
2022-08-05T03:34:51.352Z,100144.19
2022-08-05T03:37:20.738Z,100131.94
2022-08-05T03:40:01.458Z,100131.75
2022-08-05T03:42:32.970Z,100132.84
2022-08-05T03:45:22.023Z,100157.63
2022-08-05T03:47:51.243Z,100181.59
2022-08-05T03:50:21.456Z,100230.91
2022-08-05T03:55:51.092Z,100248.28
2022-08-05T03:56:04.692Z,100274.53
2022-08-05T03:58:37.945Z,100309.91
2022-08-05T04:01:12.833Z,100288.97
2022-08-05T04:04:09.086Z,100291.19
2022-08-05T04:06:35.626Z,100287.25
2022-08-05T04:09:06.297Z,100288.59
2022-08-05T04:11:50.420Z,100289.19
2022-08-05T04:14:30.192Z,100288.59
2022-08-05T04:17:00.293Z,100270.31
2022-08-05T04:19:29.233Z,100261.03
2022-08-05T04:22:09.352Z,100242.84
2022-08-05T04:24:43.986Z,100233.06
2022-08-05T04:27:14.123Z,100233.88
2022-08-05T04:29:43.569Z,100227.03
2022-08-05T04:32:11.578Z,100223.25
2022-08-05T04:34:42.981Z,100225.75
2022-08-05T04:37:20.025Z,100229.69
2022-08-05T04:39:52.971Z,100222.88
2022-08-05T04:42:20.931Z,100232.78
2022-08-05T04:44:53.342Z,100211.31
2022-08-05T04:47:21.206Z,100224.38
2022-08-05T04:50:01.727Z,100236.69
2022-08-05T04:52:34.070Z,100228.44
2022-08-05T04:55:15.006Z,100205.31
2022-08-05T04:57:47.905Z,100217.34
2022-08-05T05:00:23.327Z,100244.56
2022-08-05T05:02:51.717Z,100246.75
2022-08-05T05:05:28.715Z,100253.84
2022-08-05T05:08:02.606Z,100242.97
2022-08-05T05:10:33.411Z,100254.75
2022-08-05T05:13:04.311Z,100255.16
2022-08-05T05:15:56.914Z,100267.91
2022-08-05T05:18:31.482Z,100283.94
2022-08-05T05:21:03.269Z,100293.69
2022-08-05T05:24:01.731Z,100304.50
2022-08-05T05:26:28.444Z,100321.34
2022-08-05T05:29:02.155Z,100325.72
2022-08-05T05:34:02.342Z,100306.84
2022-08-05T05:36:31.467Z,100290.25
2022-08-05T05:39:03.597Z,100303.75
2022-08-05T05:41:40.932Z,100327.44
2022-08-05T05:44:35.848Z,100325.59
2022-08-05T05:46:58.266Z,100306.97
2022-08-05T05:49:26.318Z,100296.03
2022-08-05T05:51:54.401Z,100300.63
2022-08-05T05:54:50.473Z,100302.31
2022-08-05T05:57:19.925Z,100290.50
2022-08-05T05:59:48.807Z,100282.94
2022-08-05T06:02:17.175Z,100308.59
2022-08-05T06:05:01.252Z,100317.19
2022-08-05T06:07:41.736Z,100340.84
2022-08-05T06:10:12.699Z,100341.38
2022-08-05T06:12:42.198Z,100308.78
2022-08-05T06:15:23.794Z,100296.22
2022-08-05T06:17:54.417Z,100286.31
2022-08-05T06:20:23.000Z,100278.06
2022-08-05T06:22:51.079Z,100289.66
2022-08-05T06:25:24.327Z,100289.56
2022-08-05T06:28:10.656Z,100276.81
2022-08-05T06:30:41.329Z,100253.88
2022-08-05T06:33:09.907Z,100246.25
2022-08-05T06:36:04.022Z,100260.41
2022-08-05T06:38:36.134Z,100253.72
2022-08-05T06:41:09.198Z,100246.50
2022-08-05T06:43:58.934Z,100233.38
2022-08-05T06:46:30.255Z,100245.16
2022-08-05T06:48:59.530Z,100233.78
2022-08-05T06:51:30.217Z,100242.53
2022-08-05T06:53:59.316Z,100261.84
2022-08-05T06:56:29.063Z,100229.50
2022-08-05T06:58:57.345Z,100221.47
2022-08-05T07:01:27.641Z,100206.84
2022-08-05T07:04:01.327Z,100179.38
2022-08-05T07:06:30.411Z,100195.66
2022-08-05T07:09:03.815Z,100223.75
2022-08-05T07:11:37.351Z,100245.47
2022-08-05T07:14:30.038Z,100279.00
2022-08-05T07:18:00.930Z,100314.53
2022-08-05T07:20:31.759Z,100319.66
2022-08-05T07:22:38.507Z,100337.03
2022-08-05T07:25:22.752Z,100328.78
2022-08-05T07:28:04.252Z,100347.38
2022-08-05T07:30:38.806Z,100361.78
2022-08-05T07:33:10.675Z,100359.34
2022-08-05T07:36:02.247Z,100369.91
2022-08-05T07:38:34.170Z,100370.75
2022-08-05T07:42:09.118Z,100374.88
2022-08-05T07:43:56.542Z,100367.06
2022-08-05T07:46:26.565Z,100359.53
2022-08-05T07:49:01.910Z,100345.97
2022-08-05T07:51:36.994Z,100344.94
2022-08-05T07:54:09.970Z,100341.31
2022-08-05T07:56:59.883Z,100341.91
2022-08-05T07:59:38.082Z,100349.44
2022-08-05T08:02:16.064Z,100351.59
2022-08-05T08:04:46.899Z,100354.44
2022-08-05T08:07:15.449Z,100355.06
2022-08-05T08:09:44.211Z,100368.56
2022-08-05T08:12:35.638Z,100364.56
2022-08-05T08:15:03.681Z,100369.78
2022-08-05T08:17:32.719Z,100368.78
2022-08-05T08:20:43.862Z,100360.78
2022-08-05T08:22:53.276Z,100352.19
2022-08-05T08:25:26.831Z,100359.25
2022-08-05T08:28:18.793Z,100354.56
2022-08-05T08:31:01.733Z,100347.88
2022-08-05T08:33:37.564Z,100330.75
2022-08-05T08:36:38.474Z,100339.84
2022-08-05T08:38:55.491Z,100333.13
2022-08-05T08:41:26.136Z,100343.88
2022-08-05T08:45:17.009Z,100337.72
2022-08-05T08:47:47.216Z,100346.47
2022-08-05T08:50:13.120Z,100338.34
2022-08-05T08:52:51.349Z,100341.28
2022-08-05T08:55:31.958Z,100336.81
2022-08-05T08:58:09.483Z,100354.38
2022-08-05T09:00:37.850Z,100357.34
2022-08-05T09:03:08.189Z,100342.94
2022-08-05T09:05:38.572Z,100341.25
2022-08-05T09:08:27.240Z,100343.72
2022-08-05T09:10:58.292Z,100347.59
2022-08-05T09:13:31.905Z,100342.50
2022-08-05T09:16:17.043Z,100340.25
2022-08-05T09:18:46.666Z,100334.25
2022-08-05T09:21:20.872Z,100329.66
2022-08-05T09:24:08.656Z,100312.72
2022-08-05T09:26:38.275Z,100325.75
2022-08-05T09:29:11.542Z,100326.31
2022-08-05T09:32:40.886Z,100341.09
2022-08-05T09:34:54.905Z,100326.78
2022-08-05T09:38:12.892Z,100306.00
2022-08-05T09:40:30.638Z,100303.41
2022-08-05T09:43:01.084Z,100289.25
2022-08-05T09:46:07.421Z,100312.47
2022-08-05T09:48:29.470Z,100331.41
2022-08-05T09:51:01.485Z,100327.88
2022-08-05T09:53:53.542Z,100330.31
2022-08-05T09:56:27.180Z,100326.34
2022-08-05T09:58:59.530Z,100331.25
2022-08-05T10:01:32.382Z,100344.84
2022-08-05T10:04:04.491Z,100327.81
2022-08-05T10:06:41.564Z,100313.22
2022-08-05T10:09:27.303Z,100310.94
2022-08-05T10:11:56.362Z,100320.69
2022-08-05T10:14:30.248Z,100325.16
2022-08-05T10:17:37.239Z,100333.56
2022-08-05T10:20:10.104Z,100328.94
2022-08-05T10:22:42.793Z,100324.19
2022-08-05T10:25:16.823Z,100322.41
2022-08-05T10:28:12.909Z,100330.25
2022-08-05T10:31:20.620Z,100329.91
2022-08-05T10:33:20.915Z,100333.75
2022-08-05T10:35:59.269Z,100328.28
2022-08-05T10:38:33.252Z,100319.69
2022-08-05T10:41:09.629Z,100333.31
2022-08-05T10:43:59.285Z,100329.00
2022-08-05T10:46:44.430Z,100337.16
2022-08-05T10:49:16.601Z,100331.19
2022-08-05T10:51:58.304Z,100326.75
2022-08-05T10:55:02.808Z,100326.78
2022-08-05T10:57:33.672Z,100331.22
2022-08-05T11:00:19.022Z,100342.16
2022-08-05T11:03:23.285Z,100356.06
2022-08-05T11:06:15.430Z,100350.56
2022-08-05T11:09:16.765Z,100355.53
2022-08-05T11:11:53.361Z,100346.38
2022-08-05T11:14:49.326Z,100352.16
2022-08-05T11:17:57.369Z,100352.81
2022-08-05T11:20:41.667Z,100370.91
2022-08-05T11:23:33.387Z,100361.94
2022-08-05T11:26:28.563Z,100364.56
2022-08-05T11:29:06.752Z,100367.88
2022-08-05T11:31:56.609Z,100380.03
2022-08-05T11:34:38.678Z,100381.75
2022-08-05T11:38:28.890Z,100384.69
2022-08-05T11:39:55.236Z,100384.03
2022-08-05T11:42:29.540Z,100387.75
2022-08-05T11:45:05.381Z,100388.94
2022-08-05T11:47:48.746Z,100388.25
2022-08-05T11:50:18.027Z,100378.53
2022-08-05T11:52:49.522Z,100379.97
2022-08-05T11:55:19.114Z,100380.63
2022-08-05T11:58:09.999Z,100367.09
2022-08-05T12:00:38.437Z,100363.91
2022-08-05T12:03:29.630Z,100364.00
2022-08-05T12:06:10.120Z,100359.38
2022-08-05T12:08:49.822Z,100372.56
2022-08-05T12:11:21.429Z,100377.84
2022-08-05T12:13:59.395Z,100382.50
2022-08-05T12:16:32.806Z,100375.78
2022-08-05T12:19:08.318Z,100377.63
2022-08-05T12:21:43.417Z,100377.00
2022-08-05T12:24:17.151Z,100389.19
2022-08-05T12:26:47.719Z,100379.13
2022-08-05T12:29:17.990Z,100400.41
2022-08-05T12:31:54.522Z,100402.31
2022-08-05T12:34:28.098Z,100391.53
2022-08-05T12:36:57.194Z,100394.78
2022-08-05T12:39:28.320Z,100403.63
2022-08-05T12:42:10.252Z,100393.69
2022-08-05T12:44:44.384Z,100409.72
2022-08-05T12:47:17.092Z,100407.38
2022-08-05T12:50:03.202Z,100409.47
2022-08-05T12:52:41.859Z,100405.34
2022-08-05T12:55:23.857Z,100410.03
2022-08-05T12:58:49.557Z,100425.28
2022-08-05T13:02:00.690Z,100431.38
2022-08-05T13:03:42.169Z,100442.28
2022-08-05T13:06:20.233Z,100437.34
2022-08-05T13:08:51.777Z,100432.34
2022-08-05T13:11:35.062Z,100428.25
2022-08-05T13:14:25.122Z,100425.34
2022-08-05T13:17:09.139Z,100443.41
2022-08-05T13:19:52.031Z,100442.09
2022-08-05T13:22:27.813Z,100443.72
2022-08-05T13:25:05.815Z,100440.13
2022-08-05T13:27:39.345Z,100446.81
2022-08-05T13:30:33.775Z,100462.38
2022-08-05T13:33:01.295Z,100459.03
2022-08-05T13:35:46.912Z,100452.69
2022-08-05T13:38:31.153Z,100466.81
2022-08-05T13:41:04.653Z,100475.00
2022-08-05T13:43:43.476Z,100475.22
2022-08-05T13:46:14.738Z,100485.53
2022-08-05T13:48:58.389Z,100489.06
2022-08-05T13:51:36.666Z,100490.78
2022-08-05T13:54:12.676Z,100483.34
2022-08-05T13:56:45.548Z,100484.75
2022-08-05T13:59:21.434Z,100482.63
2022-08-05T14:01:57.528Z,100467.06
2022-08-05T14:04:49.954Z,100465.81
2022-08-05T14:07:56.414Z,100457.09
2022-08-05T14:10:12.510Z,100468.38
2022-08-05T14:12:43.049Z,100481.63
2022-08-05T14:16:05.017Z,100502.91
2022-08-05T14:18:06.104Z,100499.03
2022-08-05T14:20:43.294Z,100499.34
2022-08-05T14:23:23.347Z,100505.63
2022-08-05T14:25:54.123Z,100512.78
2022-08-05T14:28:26.129Z,100520.91
2022-08-05T14:30:54.480Z,100532.06
2022-08-05T14:33:24.082Z,100534.91
2022-08-05T14:35:54.036Z,100514.38
2022-08-05T14:38:31.591Z,100512.69
2022-08-05T14:41:01.730Z,100511.47
2022-08-05T14:43:53.804Z,100488.84
2022-08-05T14:46:22.772Z,100504.28
2022-08-05T14:48:56.654Z,100502.03
2022-08-05T14:51:30.814Z,100505.69
2022-08-05T14:54:26.703Z,100517.72
2022-08-05T14:56:49.029Z,100506.97
2022-08-05T14:59:21.200Z,100498.94
2022-08-05T15:01:49.892Z,100514.72
2022-08-05T15:04:20.658Z,100527.41
2022-08-05T15:06:50.409Z,100536.13
2022-08-05T15:09:51.550Z,100528.16
2022-08-05T15:12:11.836Z,100539.25
2022-08-05T15:14:49.953Z,100545.44
2022-08-05T15:17:47.097Z,100538.84
2022-08-05T15:20:13.401Z,100550.94
2022-08-05T15:22:54.081Z,100549.66
2022-08-05T15:25:50.821Z,100549.56
2022-08-05T15:28:16.300Z,100567.47
2022-08-05T15:30:45.825Z,100558.50
2022-08-05T15:33:22.047Z,100560.38
2022-08-05T15:36:16.990Z,100561.72
2022-08-05T15:40:39.683Z,100565.94
2022-08-05T15:41:55.698Z,100582.50
2022-08-05T15:44:28.095Z,100568.84
2022-08-05T15:47:01.174Z,100598.97
2022-08-05T15:49:53.555Z,100592.81
2022-08-05T15:52:51.751Z,100594.53
2022-08-05T15:55:08.439Z,100609.34
2022-08-05T15:57:39.836Z,100599.59
2022-08-05T16:00:10.630Z,100618.25
2022-08-05T16:02:39.582Z,100621.53
2022-08-05T16:05:13.610Z,100610.38
2022-08-05T16:07:46.649Z,100615.75
2022-08-05T16:10:25.404Z,100622.06
2022-08-05T16:12:58.481Z,100616.53
2022-08-05T16:15:32.436Z,100618.00
2022-08-05T16:18:04.089Z,100613.97
2022-08-05T16:20:36.958Z,100630.94
2022-08-05T16:23:05.143Z,100631.66
2022-08-05T16:25:36.702Z,100635.75
2022-08-05T16:28:09.732Z,100630.50
2022-08-05T16:30:38.821Z,100643.00
2022-08-05T16:33:06.875Z,100630.94
2022-08-05T16:35:42.006Z,100638.53
2022-08-05T16:38:24.095Z,100644.50
2022-08-05T16:40:55.174Z,100653.00
2022-08-05T16:43:31.125Z,100645.78
2022-08-05T16:46:05.930Z,100648.81
2022-08-05T16:48:41.284Z,100657.06
2022-08-05T16:51:11.006Z,100648.50
2022-08-05T16:54:05.897Z,100659.66
2022-08-05T16:56:34.083Z,100654.06
2022-08-05T16:59:08.436Z,100660.41
2022-08-05T17:01:52.921Z,100662.63
2022-08-05T17:04:23.893Z,100657.84
2022-08-05T17:06:55.550Z,100677.28
2022-08-05T17:09:24.690Z,100662.72
2022-08-05T17:11:59.830Z,100670.97
2022-08-05T17:14:37.768Z,100666.97
2022-08-05T17:17:14.979Z,100674.31
2022-08-05T17:19:46.042Z,100680.41
2022-08-05T17:22:24.781Z,100664.44
2022-08-05T17:24:57.494Z,100676.06
2022-08-05T17:27:33.644Z,100681.16
2022-08-05T17:30:12.112Z,100687.72
2022-08-05T17:32:46.968Z,100687.78
2022-08-05T17:35:20.678Z,100696.91
2022-08-05T17:37:49.135Z,100696.97
2022-08-05T17:40:22.255Z,100699.13
2022-08-05T17:42:53.014Z,100699.31
2022-08-05T17:45:24.882Z,100710.22
2022-08-05T17:47:58.917Z,100698.63
2022-08-05T17:50:30.386Z,100708.13
2022-08-05T17:53:05.608Z,100697.31
2022-08-05T17:55:39.524Z,100707.19
2022-08-05T17:58:11.052Z,100716.25
2022-08-05T18:00:45.252Z,100715.16
2022-08-05T18:06:12.171Z,100725.28
2022-08-05T18:08:44.259Z,100723.13
2022-08-05T18:11:23.685Z,100729.16
2022-08-05T18:13:52.903Z,100729.50
2022-08-05T18:16:22.516Z,100725.47
2022-08-05T18:18:50.338Z,100729.91
2022-08-05T18:21:21.172Z,100754.28
2022-08-05T18:23:53.717Z,100759.50
2022-08-05T18:26:27.801Z,100763.16
2022-08-05T18:28:58.267Z,100764.00
2022-08-05T18:31:33.174Z,100764.28
2022-08-05T18:34:05.975Z,100770.41
2022-08-05T18:36:35.959Z,100768.22
2022-08-05T18:39:04.430Z,100773.22
2022-08-05T18:41:57.092Z,100750.59
2022-08-05T18:44:34.810Z,100784.88
2022-08-05T18:47:04.966Z,100782.66
2022-08-05T18:49:58.078Z,100773.63
2022-08-05T18:52:35.692Z,100796.78
2022-08-05T18:55:10.555Z,100792.66
2022-08-05T18:57:50.019Z,100804.25
2022-08-05T19:00:28.762Z,100814.75
2022-08-05T19:03:03.366Z,100815.81
2022-08-05T19:06:12.136Z,100808.06
2022-08-05T19:08:30.498Z,100825.16
2022-08-05T19:11:02.833Z,100830.38
2022-08-05T19:13:36.062Z,100842.53
2022-08-05T19:16:25.030Z,100840.84
2022-08-05T19:18:56.797Z,100844.94
2022-08-05T19:21:27.619Z,100858.41
2022-08-05T19:24:08.170Z,100858.09
2022-08-05T19:26:54.290Z,100854.50
2022-08-05T19:29:23.733Z,100866.38
2022-08-05T19:31:54.943Z,100869.34
2022-08-05T19:34:27.682Z,100880.00
2022-08-05T19:36:58.233Z,100886.88
2022-08-05T19:39:28.315Z,100896.53
2022-08-05T19:42:07.708Z,100901.97
2022-08-05T19:44:44.980Z,100913.31
2022-08-05T19:47:15.322Z,100906.66
2022-08-05T19:49:48.016Z,100901.13
2022-08-05T19:52:31.775Z,100911.34
2022-08-05T19:56:11.587Z,100914.59
2022-08-05T19:58:14.193Z,100924.72
2022-08-05T20:00:40.547Z,100925.84
2022-08-05T20:03:09.351Z,100926.09
2022-08-05T20:05:42.950Z,100929.06
2022-08-05T20:08:17.788Z,100932.03
2022-08-05T20:10:45.642Z,100936.41
2022-08-05T20:13:18.128Z,100935.84
2022-08-05T20:15:58.294Z,100940.28
2022-08-05T20:18:35.795Z,100932.97
2022-08-05T20:21:07.106Z,100947.34
2022-08-05T20:23:40.146Z,100938.34
2022-08-05T20:26:18.653Z,100957.41
2022-08-05T20:28:48.559Z,100963.59
2022-08-05T20:31:17.466Z,100965.91
2022-08-05T20:33:50.246Z,100984.50
2022-08-05T20:36:20.614Z,100985.38
2022-08-05T20:38:53.357Z,100980.66
2022-08-05T20:41:26.878Z,100989.47
2022-08-05T20:44:19.175Z,100991.13
2022-08-05T20:46:59.454Z,100994.97
2022-08-05T20:49:28.176Z,101000.22
2022-08-05T20:51:58.655Z,101005.00
2022-08-05T20:54:43.214Z,101010.50
2022-08-05T20:57:24.815Z,101000.75
2022-08-05T21:00:20.787Z,101012.16
2022-08-05T21:02:58.048Z,101004.44
2022-08-05T21:05:28.560Z,101005.88
2022-08-05T21:08:15.611Z,100951.25
2022-08-05T21:10:48.708Z,101013.53
2022-08-05T21:13:41.293Z,100991.00
2022-08-05T21:16:05.814Z,101017.19
2022-08-05T21:18:33.754Z,101018.94
2022-08-05T21:21:02.383Z,101016.84
2022-08-05T21:23:37.031Z,101013.25
2022-08-05T21:26:12.428Z,101022.59
2022-08-05T21:28:47.990Z,101025.44
2022-08-05T21:31:19.326Z,101022.91
2022-08-05T21:33:49.452Z,101030.56
2022-08-05T21:36:19.152Z,101025.25
2022-08-05T21:38:57.279Z,101032.56
2022-08-05T21:41:33.091Z,101025.69
2022-08-05T21:44:04.101Z,101015.22
2022-08-05T21:46:34.323Z,101013.47
2022-08-05T21:49:04.711Z,101021.66
2022-08-05T21:52:21.487Z,101016.06
2022-08-05T21:54:28.167Z,101025.88
2022-08-05T21:57:28.467Z,101014.94
2022-08-05T22:00:05.264Z,101023.50
2022-08-05T22:02:34.878Z,101020.09
2022-08-05T22:05:04.597Z,101033.84
2022-08-05T22:07:40.352Z,101031.91
2022-08-05T22:10:25.488Z,101051.94
2022-08-05T22:12:57.518Z,101050.56
2022-08-05T22:16:04.680Z,101054.69
2022-08-05T22:18:14.721Z,101058.75
2022-08-05T22:20:44.240Z,101063.00
2022-08-05T22:24:01.179Z,101062.81
2022-08-05T22:26:38.315Z,101064.41
2022-08-05T22:29:06.657Z,101056.25
2022-08-05T22:31:44.492Z,101068.84
2022-08-05T22:34:25.439Z,101072.38
2022-08-05T22:36:56.520Z,101081.22
2022-08-05T22:39:32.578Z,101071.81
2022-08-05T22:42:11.096Z,101075.47
2022-08-05T22:44:42.544Z,101059.16
2022-08-05T22:47:29.897Z,101067.88
2022-08-05T22:52:45.914Z,101087.09
2022-08-05T22:55:18.916Z,101086.19
2022-08-05T22:57:51.332Z,101094.31
2022-08-05T23:00:21.661Z,101100.16
2022-08-05T23:02:50.438Z,101089.00
2022-08-05T23:05:19.135Z,101091.28
2022-08-05T23:07:50.782Z,101100.34
2022-08-05T23:10:20.292Z,101112.31
2022-08-05T23:12:51.268Z,101109.69
2022-08-05T23:15:22.344Z,101099.13
2022-08-05T23:18:00.609Z,101107.78
2022-08-05T23:20:31.067Z,101106.22
2022-08-05T23:22:59.059Z,101101.81
2022-08-05T23:25:51.447Z,101113.31
2022-08-05T23:28:17.296Z,101120.22
2022-08-05T23:30:53.799Z,101126.72
2022-08-05T23:34:03.345Z,101128.75
2022-08-05T23:36:13.662Z,101129.75
2022-08-05T23:38:42.667Z,101128.16
2022-08-05T23:41:11.425Z,101137.47
2022-08-05T23:44:04.671Z,101139.38
2022-08-05T23:46:28.868Z,101140.94
2022-08-05T23:48:59.794Z,101130.91
2022-08-05T23:51:53.981Z,101138.31
2022-08-05T23:54:25.240Z,101134.97
2022-08-05T23:57:03.994Z,101139.84
